createdAt,value
2018-07-08T00:02:02.544Z,13.60
2018-07-08T00:04:31.268Z,13.60
2018-07-08T00:06:59.952Z,13.50
2018-07-08T00:09:28.682Z,13.50
2018-07-08T00:11:57.404Z,13.50
2018-07-08T00:14:26.138Z,13.50
2018-07-08T00:16:54.877Z,13.50
2018-07-08T00:19:23.573Z,13.50
2018-07-08T00:21:52.771Z,13.40
2018-07-08T00:24:21.457Z,13.40
2018-07-08T00:26:50.440Z,13.40
2018-07-08T00:29:19.147Z,13.40
2018-07-08T00:31:57.608Z,13.40
2018-07-08T00:34:26.869Z,13.40
2018-07-08T00:36:55.590Z,13.30
2018-07-08T00:39:24.288Z,13.30
2018-07-08T00:41:52.977Z,13.30
2018-07-08T00:44:21.714Z,13.30
2018-07-08T00:46:50.397Z,13.30
2018-07-08T00:49:19.101Z,13.20
2018-07-08T00:51:47.869Z,13.30
2018-07-08T00:54:19.467Z,13.30
2018-07-08T00:56:48.177Z,13.30
2018-07-08T00:59:16.881Z,13.30
2018-07-08T01:01:48.667Z,13.40
2018-07-08T01:04:17.297Z,13.40
2018-07-08T01:06:50.516Z,13.50
2018-07-08T01:09:19.253Z,13.50
2018-07-08T01:11:48.042Z,13.40
2018-07-08T01:14:16.793Z,13.40
2018-07-08T01:16:45.486Z,13.40
2018-07-08T01:19:14.205Z,13.40
2018-07-08T01:21:43.002Z,13.40
2018-07-08T01:24:11.717Z,13.40
2018-07-08T01:26:42.741Z,13.30
2018-07-08T01:29:11.512Z,13.30
2018-07-08T01:31:52.513Z,13.30
2018-07-08T01:34:21.249Z,13.30
2018-07-08T01:36:49.936Z,13.30
2018-07-08T01:39:18.638Z,13.20
2018-07-08T01:41:47.426Z,13.20
2018-07-08T01:44:16.141Z,13.20
2018-07-08T01:46:45.428Z,13.10
2018-07-08T01:49:14.121Z,13.10
2018-07-08T01:51:42.813Z,13.10
2018-07-08T01:54:11.855Z,13.00
2018-07-08T01:56:40.572Z,13.00
2018-07-08T01:59:09.287Z,13.00
2018-07-08T02:01:38.010Z,12.90
2018-07-08T02:04:14.270Z,12.90
2018-07-08T02:06:43.136Z,12.90
2018-07-08T02:09:12.055Z,12.90
2018-07-08T02:11:40.819Z,12.90
2018-07-08T02:14:10.550Z,12.80
2018-07-08T02:16:41.316Z,12.80
2018-07-08T02:19:09.986Z,12.80
2018-07-08T02:21:39.478Z,12.80
2018-07-08T02:24:08.151Z,12.80
2018-07-08T02:26:36.849Z,12.80
2018-07-08T02:29:05.540Z,12.80
2018-07-08T02:31:34.276Z,12.70
2018-07-08T02:34:02.993Z,12.70
2018-07-08T02:36:33.743Z,12.70
2018-07-08T02:39:02.436Z,12.70
2018-07-08T02:41:43.401Z,12.70
2018-07-08T02:46:40.521Z,12.70
2018-07-08T02:49:09.512Z,12.70
2018-07-08T02:51:38.275Z,12.70
2018-07-08T02:54:06.989Z,12.70
2018-07-08T02:59:23.563Z,12.60
2018-07-08T03:01:52.476Z,12.60
2018-07-08T03:04:21.149Z,12.60
2018-07-08T03:06:49.946Z,12.60
2018-07-08T03:09:18.672Z,12.60
2018-07-08T03:11:47.410Z,12.60
2018-07-08T03:14:16.099Z,12.60
2018-07-08T03:16:44.776Z,12.60
2018-07-08T03:19:13.478Z,12.60
2018-07-08T03:21:43.262Z,12.60
2018-07-08T03:24:11.957Z,12.60
2018-07-08T03:26:48.302Z,12.60
2018-07-08T03:29:17.249Z,12.60
2018-07-08T03:31:45.925Z,12.60
2018-07-08T03:34:14.607Z,12.60
2018-07-08T03:36:43.350Z,12.60
2018-07-08T03:39:12.609Z,12.60
2018-07-08T03:41:43.585Z,12.60
2018-07-08T03:50:15.360Z,12.70
2018-07-08T03:52:44.348Z,13.00
2018-07-08T03:55:13.095Z,13.10
2018-07-08T03:57:41.833Z,13.30
2018-07-08T04:02:39.070Z,13.60
2018-07-08T04:05:08.885Z,13.70
2018-07-08T04:07:37.621Z,13.90
2018-07-08T04:10:06.309Z,14.10
2018-07-08T04:12:34.999Z,14.30
2018-07-08T04:15:09.130Z,14.60
2018-07-08T04:17:37.761Z,14.80
2018-07-08T04:20:06.465Z,15.10
2018-07-08T04:22:35.160Z,15.30
2018-07-08T04:25:03.873Z,15.70
2018-07-08T04:27:33.680Z,16.10
2018-07-08T04:30:02.364Z,16.40
2018-07-08T04:32:31.104Z,16.70
2018-07-08T04:35:00.181Z,17.10
2018-07-08T04:37:30.001Z,17.70
2018-07-08T04:39:58.758Z,18.30
2018-07-08T04:42:27.500Z,18.70
2018-07-08T04:44:56.876Z,19.20
2018-07-08T04:47:25.592Z,19.60
2018-07-08T04:49:54.444Z,19.70
2018-07-08T04:52:23.150Z,19.20
2018-07-08T04:54:57.111Z,19.00
2018-07-08T04:57:25.864Z,19.00
2018-07-08T04:59:54.845Z,19.40
2018-07-08T05:02:23.541Z,19.40
2018-07-08T05:04:52.254Z,19.70
2018-07-08T05:09:49.876Z,19.80
2018-07-08T05:12:18.710Z,19.80
2018-07-08T05:14:47.405Z,19.90
2018-07-08T05:17:16.178Z,19.90
2018-07-08T05:19:45.181Z,19.80
2018-07-08T05:22:14.083Z,18.20
2018-07-08T05:24:42.760Z,16.50
2018-07-08T05:27:17.234Z,15.70
2018-07-08T05:29:47.284Z,15.30
2018-07-08T05:32:16.056Z,15.10
2018-07-08T05:34:44.789Z,15.00
2018-07-08T05:37:13.565Z,15.00
2018-07-08T05:39:42.452Z,14.80
2018-07-08T05:42:16.864Z,14.80
2018-07-08T05:44:45.582Z,14.60
2018-07-08T05:47:15.536Z,14.60
2018-07-08T05:49:44.307Z,14.70
2018-07-08T05:52:13.076Z,14.60
2018-07-08T05:54:41.749Z,14.70
2018-07-08T05:57:32.891Z,14.80
2018-07-08T06:00:01.583Z,14.70
2018-07-08T06:02:30.319Z,14.70
2018-07-08T06:04:59.027Z,14.70
2018-07-08T06:07:27.715Z,14.70
2018-07-08T06:09:56.462Z,14.70
2018-07-08T06:12:25.178Z,14.90
2018-07-08T06:14:53.944Z,15.00
2018-07-08T06:17:23.353Z,15.00
2018-07-08T06:19:52.133Z,15.00
2018-07-08T06:22:28.374Z,15.10
2018-07-08T06:24:57.063Z,15.10
2018-07-08T06:27:25.798Z,15.20
2018-07-08T06:29:55.203Z,15.20
2018-07-08T06:32:24.989Z,15.30
2018-07-08T06:34:53.773Z,15.40
2018-07-08T06:37:22.460Z,15.40
2018-07-08T06:39:51.698Z,15.50
2018-07-08T06:42:20.427Z,15.60
2018-07-08T06:44:49.240Z,15.60
2018-07-08T06:47:17.898Z,15.50
2018-07-08T06:49:50.453Z,15.50
2018-07-08T06:52:19.379Z,15.60
2018-07-08T06:54:48.321Z,15.60
2018-07-08T06:57:16.973Z,15.70
2018-07-08T06:59:45.715Z,15.80
2018-07-08T07:02:14.406Z,15.80
2018-07-08T07:04:43.094Z,15.80
2018-07-08T07:07:11.863Z,15.90
2018-07-08T07:09:40.571Z,16.00
2018-07-08T07:12:09.289Z,16.00
2018-07-08T07:14:37.981Z,16.00
2018-07-08T07:17:11.266Z,16.10
2018-07-08T07:19:44.827Z,16.10
2018-07-08T07:22:23.664Z,16.20
2018-07-08T07:24:52.386Z,16.20
2018-07-08T07:27:21.343Z,16.30
2018-07-08T07:29:50.385Z,16.40
2018-07-08T07:32:19.104Z,16.50
2018-07-08T07:34:47.792Z,16.50
2018-07-08T07:37:16.542Z,16.50
2018-07-08T07:39:45.826Z,16.50
2018-07-08T07:42:16.446Z,16.50
2018-07-08T07:44:45.205Z,16.50
2018-07-08T07:47:14.007Z,16.60
2018-07-08T07:49:42.810Z,16.80
2018-07-08T07:52:11.604Z,17.00
2018-07-08T07:54:40.522Z,17.10
2018-07-08T07:57:09.238Z,17.10
2018-07-08T07:59:38.047Z,17.00
2018-07-08T08:02:07.021Z,17.10
2018-07-08T08:04:37.230Z,17.20
2018-07-08T08:07:06.623Z,17.10
2018-07-08T08:09:35.458Z,17.30
2018-07-08T08:12:04.314Z,17.50
2018-07-08T08:14:33.071Z,17.40
2018-07-08T08:17:01.992Z,17.50
2018-07-08T08:19:47.329Z,17.60
2018-07-08T08:22:16.293Z,17.70
2018-07-08T08:24:45.108Z,17.80
2018-07-08T08:27:13.975Z,17.90
2018-07-08T08:29:42.833Z,17.90
2018-07-08T08:32:11.645Z,17.90
2018-07-08T08:34:51.158Z,18.00
2018-07-08T08:37:22.473Z,18.00
2018-07-08T08:39:52.095Z,18.10
2018-07-08T08:42:21.318Z,18.10
2018-07-08T08:44:50.661Z,18.10
2018-07-08T08:47:20.094Z,18.20
2018-07-08T08:49:51.826Z,18.30
2018-07-08T08:52:20.635Z,18.30
2018-07-08T08:54:49.595Z,18.40
2018-07-08T08:57:18.345Z,18.50
2018-07-08T08:59:47.109Z,18.60
2018-07-08T09:02:15.995Z,18.60
2018-07-08T09:04:45.865Z,18.60
2018-07-08T09:07:15.827Z,18.60
2018-07-08T09:09:44.652Z,18.70
2018-07-08T09:12:14.549Z,18.70
2018-07-08T09:14:44.419Z,18.80
2018-07-08T09:17:14.330Z,18.80
2018-07-08T09:19:43.093Z,18.90
2018-07-08T09:22:14.111Z,19.00
2018-07-08T09:24:42.839Z,19.10
2018-07-08T09:27:11.536Z,19.10
2018-07-08T09:29:41.481Z,19.20
2018-07-08T09:32:10.354Z,19.30
2018-07-08T09:34:39.136Z,19.30
2018-07-08T09:37:07.889Z,19.30
2018-07-08T09:39:36.663Z,19.30
2018-07-08T09:42:05.529Z,19.40
2018-07-08T09:44:40.550Z,19.40
2018-07-08T09:47:09.311Z,19.40
2018-07-08T09:49:38.061Z,19.40
2018-07-08T09:52:07.139Z,19.50
2018-07-08T09:54:35.868Z,19.60
2018-07-08T09:57:10.717Z,19.70
2018-07-08T09:59:39.424Z,19.70
2018-07-08T10:02:08.201Z,19.70
2018-07-08T10:04:37.002Z,19.80
2018-07-08T10:07:11.425Z,19.90
2018-07-08T10:09:40.876Z,19.90
2018-07-08T10:12:10.063Z,19.90
2018-07-08T10:14:39.870Z,19.90
2018-07-08T10:17:08.623Z,20.00
2018-07-08T10:19:45.059Z,20.00
2018-07-08T10:22:14.842Z,20.10
2018-07-08T10:24:50.174Z,20.30
2018-07-08T10:27:30.276Z,20.40
2018-07-08T10:29:59.032Z,20.40
2018-07-08T10:32:27.774Z,20.40
2018-07-08T10:34:56.538Z,20.50
2018-07-08T10:37:25.374Z,20.70
2018-07-08T10:39:54.542Z,20.80
2018-07-08T10:42:23.306Z,20.80
2018-07-08T10:44:55.410Z,21.00
2018-07-08T10:47:24.155Z,21.10
2018-07-08T10:49:52.901Z,21.40
2018-07-08T10:52:21.682Z,21.40
2018-07-08T10:54:50.480Z,21.50
2018-07-08T10:57:19.255Z,21.50
2018-07-08T10:59:48.049Z,21.50
2018-07-08T11:02:16.828Z,21.50
2018-07-08T11:04:51.329Z,21.60
2018-07-08T11:07:20.164Z,21.90
2018-07-08T11:09:48.938Z,21.80
2018-07-08T11:12:17.651Z,21.70
2018-07-08T11:14:46.392Z,21.70
2018-07-08T11:17:15.118Z,21.80
2018-07-08T11:19:43.964Z,21.90
2018-07-08T11:22:12.727Z,22.00
2018-07-08T11:24:41.518Z,22.10
2018-07-08T11:27:10.336Z,22.60
2018-07-08T11:29:39.078Z,22.90
2018-07-08T11:32:07.880Z,22.90
2018-07-08T11:34:36.651Z,22.60
2018-07-08T11:37:10.454Z,22.50
2018-07-08T11:39:39.189Z,22.60
2018-07-08T11:42:07.958Z,22.70
2018-07-08T11:44:36.807Z,22.80
2018-07-08T11:47:05.650Z,22.80
2018-07-08T11:49:38.527Z,22.70
2018-07-08T11:52:07.652Z,22.60
2018-07-08T11:54:36.477Z,22.40
2018-07-08T11:57:05.336Z,22.20
2018-07-08T11:59:34.095Z,22.00
2018-07-08T12:02:10.111Z,21.80
2018-07-08T12:04:39.324Z,21.80
2018-07-08T12:07:09.228Z,21.90
2018-07-08T12:09:38.075Z,22.10
2018-07-08T12:12:06.833Z,22.10
2018-07-08T12:14:36.155Z,22.00
2018-07-08T12:17:09.085Z,22.10
2018-07-08T12:19:37.832Z,22.00
2018-07-08T12:22:06.614Z,22.00
2018-07-08T12:24:36.011Z,22.00
2018-07-08T12:27:05.112Z,22.00
2018-07-08T12:29:33.855Z,21.90
2018-07-08T12:32:02.569Z,21.80
2018-07-08T12:34:31.359Z,21.90
2018-07-08T12:37:00.110Z,21.90
2018-07-08T12:39:29.491Z,22.00
2018-07-08T12:41:58.310Z,22.10
2018-07-08T12:44:27.121Z,22.10
2018-07-08T12:46:55.996Z,22.00
2018-07-08T12:49:24.792Z,22.00
2018-07-08T12:51:53.592Z,22.10
2018-07-08T12:54:22.446Z,22.10
2018-07-08T12:56:51.170Z,22.30
2018-07-08T12:59:19.883Z,22.30
2018-07-08T13:01:48.713Z,22.40
2018-07-08T13:04:17.470Z,22.50
2018-07-08T13:06:46.289Z,22.40
2018-07-08T13:09:15.711Z,22.40
2018-07-08T13:11:44.561Z,22.60
2018-07-08T13:14:13.278Z,22.60
2018-07-08T13:16:44.090Z,22.50
2018-07-08T13:19:12.843Z,22.50
2018-07-08T13:21:41.741Z,22.60
2018-07-08T13:26:40.529Z,22.50
2018-07-08T13:29:09.312Z,22.40
2018-07-08T13:31:38.848Z,22.40
2018-07-08T13:34:07.549Z,22.40
2018-07-08T13:36:36.474Z,22.30
2018-07-08T13:39:07.254Z,22.20
2018-07-08T13:41:36.084Z,22.30
2018-07-08T13:44:04.929Z,22.30
2018-07-08T13:46:36.857Z,22.30
2018-07-08T13:49:06.714Z,22.30
2018-07-08T13:51:35.473Z,22.30
2018-07-08T13:54:04.222Z,22.30
2018-07-08T13:56:32.973Z,22.40
2018-07-08T13:59:01.763Z,22.40
2018-07-08T14:01:30.446Z,22.30
2018-07-08T14:03:59.244Z,22.40
2018-07-08T14:06:27.999Z,22.40
2018-07-08T14:08:56.706Z,22.30
2018-07-08T14:11:25.484Z,22.30
2018-07-08T14:13:54.190Z,22.30
2018-07-08T14:16:22.962Z,22.30
2018-07-08T14:18:51.743Z,22.30
2018-07-08T14:21:20.513Z,22.30
2018-07-08T14:23:49.225Z,22.40
2018-07-08T14:26:19.059Z,22.40
2018-07-08T14:28:47.811Z,22.50
2018-07-08T14:31:17.802Z,22.50
2018-07-08T14:33:46.450Z,22.40
2018-07-08T14:36:15.164Z,22.50
2018-07-08T14:38:43.964Z,22.50
2018-07-08T14:41:13.729Z,22.50
2018-07-08T14:43:44.360Z,22.60
2018-07-08T14:46:13.256Z,22.80
2018-07-08T14:48:41.967Z,22.70
2018-07-08T14:51:10.709Z,22.60
2018-07-08T14:53:41.575Z,22.50
2018-07-08T14:56:10.330Z,22.40
2018-07-08T14:58:40.207Z,22.50
2018-07-08T15:03:39.377Z,22.50
2018-07-08T15:06:08.261Z,22.40
2018-07-08T15:08:39.094Z,22.40
2018-07-08T15:11:07.804Z,22.50
2018-07-08T15:13:38.601Z,22.40
2018-07-08T15:16:07.387Z,22.40
2018-07-08T15:18:36.164Z,22.40
2018-07-08T15:21:05.011Z,22.50
2018-07-08T15:23:33.868Z,22.50
2018-07-08T15:26:03.729Z,22.50
2018-07-08T15:28:34.469Z,22.60
2018-07-08T15:31:03.333Z,22.50
2018-07-08T15:33:32.091Z,22.60
2018-07-08T15:36:00.809Z,22.70
2018-07-08T15:38:29.525Z,22.70
2018-07-08T15:40:58.287Z,22.70
2018-07-08T15:43:27.188Z,22.80
2018-07-08T15:45:56.736Z,22.80
2018-07-08T15:48:29.053Z,22.80
2018-07-08T15:50:57.859Z,22.70
2018-07-08T15:53:26.604Z,22.70
2018-07-08T15:55:55.526Z,22.70
2018-07-08T15:58:24.265Z,22.80
2018-07-08T16:00:54.013Z,22.80
2018-07-08T16:03:22.785Z,22.80
2018-07-08T16:05:51.664Z,22.90
2018-07-08T16:08:20.701Z,22.80
2018-07-08T16:10:49.475Z,22.60
2018-07-08T16:13:18.677Z,22.70
2018-07-08T16:15:47.543Z,22.60
2018-07-08T16:18:16.357Z,22.70
2018-07-08T16:20:45.025Z,22.80
2018-07-08T16:23:13.750Z,22.80
2018-07-08T16:25:42.576Z,22.80
2018-07-08T16:28:11.598Z,22.70
2018-07-08T16:30:40.367Z,22.80
2018-07-08T16:33:09.146Z,22.80
2018-07-08T16:35:40.441Z,23.00
2018-07-08T16:38:09.188Z,23.20
2018-07-08T16:40:45.277Z,23.10
2018-07-08T16:43:14.266Z,23.20
2018-07-08T16:45:43.236Z,23.00
2018-07-08T16:48:12.182Z,22.70
2018-07-08T16:50:40.879Z,22.60
2018-07-08T16:53:09.825Z,22.70
2018-07-08T16:55:40.602Z,22.50
2018-07-08T16:58:09.333Z,22.30
2018-07-08T17:00:40.158Z,22.10
2018-07-08T17:03:08.967Z,22.30
2018-07-08T17:05:42.339Z,22.30
2018-07-08T17:08:11.112Z,22.40
2018-07-08T17:10:39.868Z,22.60
2018-07-08T17:13:09.137Z,22.70
2018-07-08T17:15:39.937Z,22.50
2018-07-08T17:18:12.368Z,22.30
2018-07-08T17:20:41.095Z,22.40
2018-07-08T17:23:09.814Z,22.30
2018-07-08T17:25:38.554Z,22.10
2018-07-08T17:28:07.263Z,22.20
2018-07-08T17:30:36.026Z,22.30
2018-07-08T17:33:05.182Z,22.10
2018-07-08T17:35:33.866Z,21.90
2018-07-08T17:38:02.595Z,21.80
2018-07-08T17:40:31.410Z,21.80
2018-07-08T17:43:00.246Z,21.90
2018-07-08T17:45:30.133Z,22.00
2018-07-08T17:47:58.922Z,22.10
2018-07-08T17:50:27.642Z,22.10
2018-07-08T17:52:57.667Z,22.00
2018-07-08T17:55:29.753Z,21.90
2018-07-08T17:57:58.458Z,21.80
2018-07-08T18:00:27.348Z,21.50
2018-07-08T18:02:58.124Z,21.30
2018-07-08T18:05:26.894Z,21.50
2018-07-08T18:07:55.663Z,21.80
2018-07-08T18:10:24.464Z,22.00
2018-07-08T18:12:53.242Z,21.70
2018-07-08T18:15:22.128Z,21.50
2018-07-08T18:17:50.891Z,21.40
2018-07-08T18:20:19.787Z,21.50
2018-07-08T18:22:48.800Z,21.30
2018-07-08T18:25:17.696Z,21.20
2018-07-08T18:27:46.446Z,21.20
2018-07-08T18:30:16.291Z,21.20
2018-07-08T18:32:45.059Z,21.20
2018-07-08T18:35:18.269Z,21.20
2018-07-08T18:37:47.020Z,21.00
2018-07-08T18:40:16.215Z,20.90
2018-07-08T18:42:44.990Z,21.00
2018-07-08T18:45:13.734Z,21.00
2018-07-08T18:47:42.513Z,20.70
2018-07-08T18:50:11.301Z,20.60
2018-07-08T18:52:40.192Z,20.50
2018-07-08T18:55:08.969Z,20.20
2018-07-08T18:57:41.388Z,20.20
2018-07-08T19:00:10.088Z,19.90
2018-07-08T19:02:51.061Z,19.70
2018-07-08T19:05:24.116Z,19.50
2018-07-08T19:08:02.642Z,19.30
2018-07-08T19:10:31.391Z,19.10
2018-07-08T19:13:00.223Z,18.90
2018-07-08T19:15:31.082Z,18.60
2018-07-08T19:18:05.679Z,18.40
2018-07-08T19:20:34.441Z,18.30
2018-07-08T19:23:03.379Z,18.30
2018-07-08T19:25:32.408Z,18.20
2018-07-08T19:28:02.228Z,18.20
2018-07-08T19:30:31.233Z,18.10
2018-07-08T19:33:01.036Z,18.00
2018-07-08T19:35:30.029Z,17.90
2018-07-08T19:37:58.851Z,17.90
2018-07-08T19:40:27.630Z,17.80
2018-07-08T19:42:56.461Z,17.70
2018-07-08T19:45:25.221Z,17.60
2018-07-08T19:47:53.983Z,17.50
2018-07-08T19:50:28.809Z,17.50
2018-07-08T19:52:57.606Z,17.30
2018-07-08T19:55:26.346Z,17.30
2018-07-08T19:57:55.228Z,17.20
2018-07-08T20:00:24.029Z,17.10
2018-07-08T20:02:53.464Z,17.00
2018-07-08T20:05:22.268Z,17.00
2018-07-08T20:07:51.455Z,17.00
2018-07-08T20:10:20.090Z,16.90
2018-07-08T20:12:48.860Z,16.90
2018-07-08T20:15:18.768Z,16.80
2018-07-08T20:20:16.640Z,16.70
2018-07-08T20:22:48.962Z,16.60
2018-07-08T20:25:18.741Z,16.60
2018-07-08T20:27:47.493Z,16.50
2018-07-08T20:30:16.295Z,16.50
2018-07-08T20:32:45.281Z,16.50
2018-07-08T20:35:14.009Z,16.40
2018-07-08T20:37:44.756Z,16.30
2018-07-08T20:40:13.481Z,16.30
2018-07-08T20:42:42.220Z,16.30
2018-07-08T20:45:11.024Z,16.20
2018-07-08T20:47:39.866Z,16.20
2018-07-08T20:50:08.768Z,16.20
2018-07-08T20:52:37.490Z,16.10
2018-07-08T20:55:06.338Z,16.10
2018-07-08T20:57:36.005Z,16.00
2018-07-08T21:00:04.857Z,16.00
2018-07-08T21:02:40.709Z,15.90
2018-07-08T21:05:10.672Z,15.80
2018-07-08T21:07:40.300Z,15.80
2018-07-08T21:10:10.118Z,15.70
2018-07-08T21:12:38.944Z,15.70
2018-07-08T21:15:10.017Z,15.60
2018-07-08T21:17:40.654Z,15.60
2018-07-08T21:20:09.565Z,15.50
2018-07-08T21:22:38.261Z,15.50
2018-07-08T21:25:07.880Z,15.50
2018-07-08T21:27:36.584Z,15.40
2018-07-08T21:30:06.362Z,15.40
2018-07-08T21:32:37.572Z,15.40
2018-07-08T21:35:06.705Z,15.30
2018-07-08T21:37:36.317Z,15.20
2018-07-08T21:40:05.813Z,15.20
2018-07-08T21:42:36.078Z,15.20
2018-07-08T21:45:05.570Z,15.10
2018-07-08T21:47:34.269Z,15.10
2018-07-08T21:50:07.323Z,15.10
2018-07-08T21:52:36.025Z,15.00
2018-07-08T21:55:29.240Z,15.00
2018-07-08T21:57:58.014Z,15.00
2018-07-08T22:00:29.913Z,14.90
2018-07-08T22:02:58.908Z,14.90
2018-07-08T22:05:44.277Z,14.90
2018-07-08T22:08:12.957Z,14.80
2018-07-08T22:10:41.651Z,14.80
2018-07-08T22:13:14.594Z,14.80
2018-07-08T22:15:43.389Z,14.70
2018-07-08T22:18:12.065Z,14.70
2018-07-08T22:20:40.757Z,14.70
2018-07-08T22:23:09.468Z,14.60
2018-07-08T22:25:39.263Z,14.60
2018-07-08T22:28:07.945Z,14.60
2018-07-08T22:30:36.646Z,14.50
2018-07-08T22:33:05.425Z,14.50
2018-07-08T22:35:34.030Z,14.50
2018-07-08T22:38:03.753Z,14.50
2018-07-08T22:40:33.125Z,14.50
2018-07-08T22:43:11.383Z,14.40
2018-07-08T22:45:40.097Z,14.40
2018-07-08T22:48:09.004Z,14.40
2018-07-08T22:50:37.819Z,14.30
2018-07-08T22:53:06.529Z,14.30
2018-07-08T22:55:35.310Z,14.30
2018-07-08T22:58:04.537Z,14.30
2018-07-08T23:00:44.821Z,14.30
2018-07-08T23:03:47.484Z,14.30
2018-07-08T23:06:16.648Z,14.20
2018-07-08T23:08:45.561Z,14.20
2018-07-08T23:11:14.471Z,14.20
2018-07-08T23:13:48.689Z,14.20
2018-07-08T23:16:17.549Z,14.20
2018-07-08T23:18:51.240Z,14.10
2018-07-08T23:21:19.934Z,14.10
2018-07-08T23:23:48.658Z,14.10
2018-07-08T23:26:17.352Z,14.10
2018-07-08T23:28:46.201Z,14.00
2018-07-08T23:31:15.543Z,14.00
2018-07-08T23:33:44.411Z,14.00
2018-07-08T23:36:13.198Z,13.90
2018-07-08T23:38:50.443Z,13.90
2018-07-08T23:41:19.167Z,13.90
2018-07-08T23:43:49.090Z,13.90
2018-07-08T23:46:17.856Z,13.80
2018-07-08T23:48:47.685Z,13.80
2018-07-08T23:51:16.458Z,13.80
2018-07-08T23:53:49.715Z,13.70
2018-07-08T23:56:18.515Z,13.70
2018-07-08T23:58:47.248Z,13.60
